首页
METAR-TAF:

METAR-TAF

机场 :

黑堡, 弗吉尼亚州, 美国

纬度: 37-13N, 经度: 080-25W, 海拔: 650米

当前天气观测

该预报发布于39分钟前的08:10 UTC
静风
温度 8°C
湿度 93%
气压 1022 hPa
能見度: 16.1公里
天空无云

METAR: KBCB 230810Z AUTO 00000KT 10SM CLR 08/07 A3017 RMK AO2 T00800065

时间: 04:49 (08:49 UTC)

预报

该预报发布于3小时和29分钟前的05:20 UTC
预报有效从23日的 06点(UTC)到 24日的 06点(UTC)
风速节,风向
能見度: 10公里
天空无云
从 23日的 1600点(UTC)
风速5节,风向西转西南
能見度: 10公里
少量云层高于25000英尺
从 24日的 0400点(UTC)
风速5节,风向西
能見度: 10公里
散云层高于15000英尺

TAF: KBCB 230520Z 2306/2406 00000KT P6SM SKC FM231600 25005KT P6SM FEW250 FM240400 26005KT P6SM SCT150

超过4000个机场的气象观测和天气预报(METAR&TAF报告)。

可查询的气象台以黄色和红色小点在地图上表示。

将鼠标移到小点上方,可查看气象台名称。

然后点击查看天气观测和预报。

如需切换地图:点击带黑十字的绿色按钮放大地图;点击带横线的绿色按钮缩小地图;或者点击绿色箭头查看邻近地区的地图。


METAR-TAF: